createdAt,value
2018-09-17T00:03:23.752Z,48.70
2018-09-17T00:08:27.000Z,48.90
2018-09-17T00:13:30.251Z,49.00
2018-09-17T00:18:33.499Z,48.70
2018-09-17T00:23:36.739Z,48.60
2018-09-17T00:28:40.016Z,48.90
2018-09-17T00:33:43.269Z,48.70
2018-09-17T00:38:47.870Z,49.30
2018-09-17T00:43:51.133Z,48.90
2018-09-17T00:48:54.428Z,48.90
2018-09-17T00:53:57.702Z,48.80
2018-09-17T00:59:01.015Z,48.80
2018-09-17T01:04:04.301Z,48.80
2018-09-17T01:09:08.116Z,48.80
2018-09-17T01:14:11.394Z,49.00
2018-09-17T01:19:14.696Z,48.80
2018-09-17T01:24:18.051Z,48.80
2018-09-17T01:29:21.313Z,48.80
2018-09-17T01:34:24.652Z,48.70
2018-09-17T01:39:27.961Z,48.90
2018-09-17T01:44:31.245Z,48.90
2018-09-17T01:49:34.505Z,48.90
2018-09-17T01:54:37.788Z,48.90
2018-09-17T01:59:41.152Z,49.00
2018-09-17T02:04:44.455Z,48.60
2018-09-17T02:09:47.813Z,48.80
2018-09-17T02:14:51.016Z,48.90
2018-09-17T02:19:54.260Z,48.80
2018-09-17T02:24:57.526Z,48.80
2018-09-17T02:30:00.793Z,49.00
2018-09-17T02:35:04.105Z,48.60
2018-09-17T02:40:11.620Z,48.80
2018-09-17T02:45:14.986Z,48.90
2018-09-17T02:50:18.272Z,48.70
2018-09-17T02:55:21.527Z,48.70
2018-09-17T03:00:24.771Z,48.90
2018-09-17T03:05:27.980Z,48.50
2018-09-17T03:10:31.232Z,48.60
2018-09-17T03:15:45.640Z,48.70
2018-09-17T03:20:48.901Z,48.60
2018-09-17T03:25:52.134Z,48.70
2018-09-17T03:30:55.696Z,48.50
2018-09-17T03:35:58.944Z,48.50
2018-09-17T03:41:03.748Z,48.60
2018-09-17T03:46:07.060Z,48.80
2018-09-17T03:51:10.863Z,48.60
2018-09-17T03:56:14.068Z,48.50
2018-09-17T04:01:17.344Z,48.80
2018-09-17T04:06:20.584Z,48.80
2018-09-17T04:11:23.829Z,48.60
2018-09-17T04:16:27.105Z,48.80
2018-09-17T04:21:30.365Z,48.50
2018-09-17T04:26:33.633Z,49.10
2018-09-17T04:31:36.922Z,48.50
2018-09-17T04:36:40.213Z,48.40
2018-09-17T04:41:43.508Z,48.80
2018-09-17T04:46:46.817Z,48.60
2018-09-17T04:51:50.176Z,48.80
2018-09-17T04:56:53.447Z,48.80
2018-09-17T05:01:57.104Z,48.50
2018-09-17T05:07:00.376Z,48.80
2018-09-17T05:12:03.884Z,48.70
2018-09-17T05:17:07.139Z,48.60
2018-09-17T05:22:10.435Z,48.60
2018-09-17T05:27:13.684Z,48.70
2018-09-17T05:32:16.932Z,48.70
2018-09-17T05:37:20.430Z,49.40
2018-09-17T05:42:23.724Z,48.70
2018-09-17T05:47:26.968Z,48.70
2018-09-17T05:52:30.241Z,49.30
2018-09-17T05:57:33.504Z,48.90
2018-09-17T06:02:36.752Z,48.80
2018-09-17T06:07:39.984Z,48.70
2018-09-17T06:12:44.752Z,48.90
2018-09-17T06:17:47.976Z,48.90
2018-09-17T06:22:51.237Z,49.10
2018-09-17T06:27:54.460Z,49.00
2018-09-17T06:32:57.684Z,48.90
2018-09-17T06:38:00.985Z,49.30
2018-09-17T06:43:04.252Z,49.20
2018-09-17T06:48:07.512Z,48.90
2018-09-17T06:53:10.765Z,49.20
2018-09-17T06:58:14.020Z,49.20
2018-09-17T07:03:17.290Z,49.20
2018-09-17T07:08:20.552Z,49.30
2018-09-17T07:13:23.835Z,49.10
2018-09-17T07:18:27.104Z,49.30
2018-09-17T07:23:30.438Z,49.10
2018-09-17T07:28:33.755Z,49.30
2018-09-17T07:33:37.032Z,49.30
2018-09-17T07:38:40.313Z,49.40
2018-09-17T07:43:43.578Z,49.40
2018-09-17T07:48:46.844Z,49.40
2018-09-17T07:53:50.169Z,49.40
2018-09-17T07:58:53.511Z,49.70
2018-09-17T08:03:56.736Z,49.70
2018-09-17T08:09:00.167Z,50.30
2018-09-17T08:14:03.471Z,50.80
2018-09-17T08:19:06.781Z,49.90
2018-09-17T08:24:10.080Z,49.90
2018-09-17T08:29:13.373Z,50.10
2018-09-17T08:34:16.644Z,50.40
2018-09-17T08:39:19.960Z,50.40
2018-09-17T08:44:23.240Z,51.80
2018-09-17T08:49:26.516Z,51.20
2018-09-17T08:54:29.765Z,51.10
2018-09-17T09:00:38.108Z,51.20
2018-09-17T09:05:45.597Z,51.40
2018-09-17T09:10:53.067Z,52.70
2018-09-17T09:15:56.325Z,52.30
2018-09-17T09:20:59.616Z,52.40
2018-09-17T09:26:02.904Z,52.20
2018-09-17T09:31:06.172Z,52.30
2018-09-17T09:36:09.460Z,52.30
2018-09-17T09:41:12.712Z,51.70
2018-09-17T09:46:15.992Z,52.40
2018-09-17T09:51:19.265Z,52.40
2018-09-17T09:56:22.515Z,52.70
2018-09-17T10:01:26.376Z,52.50
2018-09-17T10:06:29.680Z,52.80
2018-09-17T10:11:38.341Z,52.60
2018-09-17T10:16:46.892Z,52.10
2018-09-17T10:21:50.148Z,51.70
2018-09-17T10:26:53.445Z,51.70
2018-09-17T10:31:56.725Z,52.30
2018-09-17T10:37:00.013Z,52.10
2018-09-17T10:42:03.252Z,52.30
2018-09-17T10:47:06.536Z,51.80
2018-09-17T10:52:09.803Z,51.70
2018-09-17T10:57:13.126Z,51.60
2018-09-17T11:02:16.339Z,50.90
2018-09-17T11:07:19.620Z,50.80
2018-09-17T11:12:22.887Z,51.30
2018-09-17T11:17:26.243Z,51.00
2018-09-17T11:22:29.404Z,50.30
2018-09-17T11:27:32.691Z,50.30
2018-09-17T11:32:36.012Z,50.20
2018-09-17T11:37:39.320Z,50.10
2018-09-17T11:42:42.523Z,50.60
2018-09-17T11:47:45.755Z,50.70
2018-09-17T11:52:49.178Z,49.70
2018-09-17T11:57:52.438Z,49.90
2018-09-17T12:03:01.012Z,51.30
2018-09-17T12:08:08.842Z,50.40
2018-09-17T12:13:12.084Z,50.10
2018-09-17T12:18:15.321Z,51.00
2018-09-17T12:23:18.567Z,50.70
2018-09-17T12:28:21.845Z,50.10
2018-09-17T12:33:25.196Z,50.10
2018-09-17T12:38:29.703Z,51.50
2018-09-17T12:43:32.995Z,50.90
2018-09-17T12:48:36.292Z,49.40
2018-09-17T12:53:39.571Z,46.30
2018-09-17T12:58:42.861Z,47.20
2018-09-17T13:03:46.105Z,48.00
2018-09-17T13:08:49.427Z,48.70
2018-09-17T13:13:52.682Z,48.70
2018-09-17T13:18:55.932Z,49.10
2018-09-17T13:23:59.232Z,49.20
2018-09-17T13:29:02.631Z,48.20
2018-09-17T13:34:06.080Z,48.00
2018-09-17T13:39:09.371Z,48.00
2018-09-17T13:44:12.697Z,46.20
2018-09-17T13:49:16.743Z,47.50
2018-09-17T13:54:20.107Z,48.00
2018-09-17T13:59:23.373Z,45.10
2018-09-17T14:04:26.681Z,43.50
2018-09-17T14:09:29.819Z,41.30
2018-09-17T14:14:33.103Z,39.80
2018-09-17T14:19:36.336Z,39.80
2018-09-17T14:24:40.423Z,39.60
2018-09-17T14:29:43.719Z,39.90
2018-09-17T14:34:46.997Z,40.20
2018-09-17T14:39:50.228Z,40.90
2018-09-17T14:44:53.479Z,41.80
2018-09-17T14:49:56.704Z,43.80
2018-09-17T14:54:59.929Z,42.30
2018-09-17T15:00:03.136Z,40.70
2018-09-17T15:05:06.381Z,41.20
2018-09-17T15:10:09.638Z,41.00
2018-09-17T15:15:13.690Z,41.10
2018-09-17T15:27:11.325Z,45.90
2018-09-17T15:32:14.581Z,43.80
2018-09-17T15:37:17.820Z,44.20
2018-09-17T15:42:21.096Z,35.80
2018-09-17T15:47:24.398Z,39.50
2018-09-17T15:52:27.670Z,36.40
2018-09-17T15:57:30.992Z,33.50
2018-09-17T16:02:34.446Z,34.00
2018-09-17T16:07:37.833Z,32.80
2018-09-17T16:12:41.105Z,32.50
2018-09-17T16:17:44.393Z,32.40
2018-09-17T16:22:47.687Z,33.70
2018-09-17T16:27:50.959Z,34.40
2018-09-17T16:32:54.232Z,33.90
2018-09-17T16:37:57.537Z,33.40
2018-09-17T16:43:00.784Z,33.70
2018-09-17T16:48:04.060Z,35.10
2018-09-17T16:53:07.429Z,35.90
2018-09-17T16:58:10.623Z,36.90
2018-09-17T17:03:13.937Z,38.10
2018-09-17T17:08:17.244Z,37.90
2018-09-17T17:13:20.764Z,38.30
2018-09-17T17:18:24.013Z,34.90
2018-09-17T17:23:27.276Z,33.50
2018-09-17T17:28:30.545Z,33.10
2018-09-17T17:33:34.125Z,33.50
2018-09-17T17:38:37.424Z,34.40
2018-09-17T17:43:40.673Z,35.40
2018-09-17T17:48:43.948Z,36.40
2018-09-17T17:53:47.196Z,37.10
2018-09-17T17:58:50.473Z,37.90
2018-09-17T18:03:53.781Z,38.20
2018-09-17T18:08:57.012Z,38.50
2018-09-17T18:14:00.279Z,38.70
2018-09-17T18:19:03.658Z,38.90
2018-09-17T18:24:06.928Z,39.00
2018-09-17T18:29:10.549Z,39.10
2018-09-17T18:34:13.850Z,39.20
2018-09-17T18:39:17.274Z,39.30
2018-09-17T18:44:20.550Z,39.60
2018-09-17T18:49:23.808Z,40.10
2018-09-17T18:54:27.089Z,40.30
2018-09-17T18:59:30.378Z,40.60
2018-09-17T19:04:33.645Z,40.50
2018-09-17T19:09:42.311Z,40.70
2018-09-17T19:14:51.078Z,40.70
2018-09-17T19:19:54.619Z,40.70
2018-09-17T19:24:57.908Z,40.90
2018-09-17T19:30:01.236Z,41.00
2018-09-17T19:35:04.480Z,41.20
2018-09-17T19:40:14.096Z,41.30
2018-09-17T19:45:22.756Z,41.40
2018-09-17T19:50:31.529Z,41.70
2018-09-17T19:55:34.664Z,41.60
2018-09-17T20:00:38.039Z,41.60
2018-09-17T20:05:46.476Z,41.50
2018-09-17T20:10:49.719Z,41.70
2018-09-17T20:15:53.005Z,41.60
2018-09-17T20:20:56.244Z,41.50
2018-09-17T20:25:59.456Z,41.60
2018-09-17T20:31:02.780Z,41.60
2018-09-17T20:36:05.999Z,41.60
2018-09-17T20:41:09.376Z,41.80
2018-09-17T20:46:12.668Z,42.00
2018-09-17T20:51:15.929Z,41.90
2018-09-17T20:56:19.174Z,42.00
2018-09-17T21:01:22.522Z,42.00
2018-09-17T21:06:25.761Z,42.20
2018-09-17T21:11:29.013Z,42.00
2018-09-17T21:16:32.305Z,42.00
2018-09-17T21:21:35.580Z,42.20
2018-09-17T21:26:38.864Z,42.50
2018-09-17T21:31:42.180Z,42.40
2018-09-17T21:36:45.498Z,42.40
2018-09-17T21:41:48.761Z,42.70
2018-09-17T21:46:52.041Z,42.90
2018-09-17T21:51:55.335Z,42.90
2018-09-17T21:56:58.591Z,42.90
2018-09-17T22:02:01.844Z,43.10
2018-09-17T22:07:05.198Z,43.00
2018-09-17T22:12:08.492Z,43.20
2018-09-17T22:17:11.793Z,43.30
2018-09-17T22:22:15.074Z,43.40
2018-09-17T22:27:18.368Z,43.50
2018-09-17T22:32:21.660Z,43.40
2018-09-17T22:37:24.911Z,43.70
2018-09-17T22:42:28.176Z,43.70
2018-09-17T22:47:31.408Z,43.70
2018-09-17T22:52:34.632Z,43.80
2018-09-17T22:57:37.870Z,43.90
2018-09-17T23:02:41.095Z,44.50
2018-09-17T23:07:44.311Z,43.70
2018-09-17T23:12:47.559Z,43.90
2018-09-17T23:17:50.796Z,43.80
2018-09-17T23:22:54.044Z,43.80
2018-09-17T23:27:57.240Z,44.20
2018-09-17T23:33:00.463Z,43.80
2018-09-17T23:38:03.756Z,43.60
2018-09-17T23:43:07.040Z,43.70
2018-09-17T23:48:10.327Z,43.70
2018-09-17T23:53:13.569Z,44.10
2018-09-17T23:58:16.812Z,44.50
